sensor_id;sensor_type;location;lat;lon;timestamp;pressure;altitude;pressure_sealevel;temperature;humidity
48810;BME280;40070;47.322;18.784;2023-07-31T00:10:20;999.94;;;20.08;82.87
48810;BME280;40070;47.322;18.784;2023-07-31T00:12:21;999.86;;;20.19;81.78
48810;BME280;40070;47.322;18.784;2023-07-31T00:14:22;999.84;;;20.22;81.36
48810;BME280;40070;47.322;18.784;2023-07-31T00:16:23;999.82;;;20.24;81.11
48810;BME280;40070;47.322;18.784;2023-07-31T00:18:24;999.80;;;20.18;80.89
48810;BME280;40070;47.322;18.784;2023-07-31T00:20:24;999.81;;;20.16;81.49
48810;BME280;40070;47.322;18.784;2023-07-31T00:22:25;999.82;;;19.98;82.13
48810;BME280;40070;47.322;18.784;2023-07-31T00:24:26;999.84;;;20.05;82.22
48810;BME280;40070;47.322;18.784;2023-07-31T00:26:38;999.85;;;20.22;81.31
48810;BME280;40070;47.322;18.784;2023-07-31T00:28:38;999.84;;;20.37;80.57
48810;BME280;40070;47.322;18.784;2023-07-31T00:30:40;999.84;;;20.34;80.19
48810;BME280;40070;47.322;18.784;2023-07-31T00:32:40;999.85;;;20.29;80.51
48810;BME280;40070;47.322;18.784;2023-07-31T00:34:41;999.86;;;20.46;79.08
48810;BME280;40070;47.322;18.784;2023-07-31T00:36:42;999.89;;;20.42;79.38
48810;BME280;40070;47.322;18.784;2023-07-31T00:38:43;999.91;;;20.23;80.90
48810;BME280;40070;47.322;18.784;2023-07-31T00:40:44;999.90;;;20.17;81.30
48810;BME280;40070;47.322;18.784;2023-07-31T00:42:45;999.91;;;20.08;81.96
48810;BME280;40070;47.322;18.784;2023-07-31T00:44:46;999.92;;;20.10;81.84
48810;BME280;40070;47.322;18.784;2023-07-31T00:46:47;999.99;;;19.91;82.36
48810;BME280;40070;47.322;18.784;2023-07-31T00:48:48;1000.04;;;19.92;82.50
48810;BME280;40070;47.322;18.784;2023-07-31T00:50:50;1000.07;;;19.81;83.09
48810;BME280;40070;47.322;18.784;2023-07-31T00:52:52;1000.02;;;19.74;83.35
48810;BME280;40070;47.322;18.784;2023-07-31T00:54:53;1000.01;;;19.76;82.79
48810;BME280;40070;47.322;18.784;2023-07-31T00:56:54;999.96;;;19.79;82.72
48810;BME280;40070;47.322;18.784;2023-07-31T00:58:55;999.91;;;19.85;82.24
48810;BME280;40070;47.322;18.784;2023-07-31T01:00:56;999.97;;;19.78;82.34
48810;BME280;40070;47.322;18.784;2023-07-31T01:02:57;1000.05;;;19.86;82.39
48810;BME280;40070;47.322;18.784;2023-07-31T01:04:58;1000.04;;;19.71;83.13
48810;BME280;40070;47.322;18.784;2023-07-31T01:09:26;1000.05;;;19.63;82.81
48810;BME280;40070;47.322;18.784;2023-07-31T01:11:38;1000.09;;;19.68;82.63
48810;BME280;40070;47.322;18.784;2023-07-31T01:13:42;1000.11;;;19.76;81.98
48810;BME280;40070;47.322;18.784;2023-07-31T01:15:44;1000.12;;;19.78;81.64
48810;BME280;40070;47.322;18.784;2023-07-31T01:17:45;1000.07;;;19.94;80.67
48810;BME280;40070;47.322;18.784;2023-07-31T01:19:46;1000.07;;;19.96;80.17
48810;BME280;40070;47.322;18.784;2023-07-31T01:21:58;1000.06;;;20.00;79.80
48810;BME280;40070;47.322;18.784;2023-07-31T01:26:28;1000.04;;;19.80;80.11
48810;BME280;40070;47.322;18.784;2023-07-31T01:28:56;1000.02;;;19.75;80.50
48810;BME280;40070;47.322;18.784;2023-07-31T01:31:01;999.97;;;19.90;79.12
48810;BME280;40070;47.322;18.784;2023-07-31T01:33:03;999.95;;;19.90;79.05
48810;BME280;40070;47.322;18.784;2023-07-31T01:35:04;999.84;;;20.00;78.38
48810;BME280;40070;47.322;18.784;2023-07-31T01:37:05;999.79;;;19.95;78.69
48810;BME280;40070;47.322;18.784;2023-07-31T01:39:06;999.83;;;20.03;78.27
48810;BME280;40070;47.322;18.784;2023-07-31T01:41:07;999.80;;;20.01;78.00
48810;BME280;40070;47.322;18.784;2023-07-31T01:43:08;999.74;;;19.99;77.89
48810;BME280;40070;47.322;18.784;2023-07-31T01:45:09;999.77;;;20.01;78.03
48810;BME280;40070;47.322;18.784;2023-07-31T01:47:11;999.73;;;20.07;77.60
48810;BME280;40070;47.322;18.784;2023-07-31T01:49:12;999.73;;;20.08;77.09
48810;BME280;40070;47.322;18.784;2023-07-31T01:51:13;999.74;;;20.06;76.08
48810;BME280;40070;47.322;18.784;2023-07-31T01:53:14;999.67;;;19.85;76.40
48810;BME280;40070;47.322;18.784;2023-07-31T01:55:15;999.66;;;19.91;75.91
48810;BME280;40070;47.322;18.784;2023-07-31T01:57:15;999.69;;;19.93;75.94
48810;BME280;40070;47.322;18.784;2023-07-31T01:59:16;999.67;;;19.81;76.29
48810;BME280;40070;47.322;18.784;2023-07-31T02:01:18;999.74;;;19.87;75.24
48810;BME280;40070;47.322;18.784;2023-07-31T02:03:19;999.69;;;19.83;75.31
48810;BME280;40070;47.322;18.784;2023-07-31T02:05:20;999.65;;;19.73;76.25
48810;BME280;40070;47.322;18.784;2023-07-31T02:07:21;999.61;;;19.71;76.56
48810;BME280;40070;47.322;18.784;2023-07-31T02:09:22;999.63;;;19.59;76.94
48810;BME280;40070;47.322;18.784;2023-07-31T02:11:23;999.65;;;19.49;77.30
48810;BME280;40070;47.322;18.784;2023-07-31T02:13:24;999.69;;;19.48;78.84
48810;BME280;40070;47.322;18.784;2023-07-31T02:15:25;999.74;;;19.51;78.27
48810;BME280;40070;47.322;18.784;2023-07-31T02:17:26;999.78;;;19.57;78.75
48810;BME280;40070;47.322;18.784;2023-07-31T02:19:27;999.78;;;19.66;77.85
48810;BME280;40070;47.322;18.784;2023-07-31T02:21:28;999.84;;;19.65;78.27
48810;BME280;40070;47.322;18.784;2023-07-31T02:23:29;999.85;;;19.58;78.50
48810;BME280;40070;47.322;18.784;2023-07-31T02:25:30;999.88;;;19.59;78.44
48810;BME280;40070;47.322;18.784;2023-07-31T02:27:31;999.88;;;19.55;78.32
48810;BME280;40070;47.322;18.784;2023-07-31T02:29:32;999.98;;;19.45;78.59
48810;BME280;40070;47.322;18.784;2023-07-31T02:31:33;1000.03;;;19.46;79.54
48810;BME280;40070;47.322;18.784;2023-07-31T02:33:34;1000.06;;;19.62;78.77
48810;BME280;40070;47.322;18.784;2023-07-31T02:35:35;1000.09;;;19.59;78.56
48810;BME280;40070;47.322;18.784;2023-07-31T02:37:36;1000.12;;;19.56;78.60
48810;BME280;40070;47.322;18.784;2023-07-31T02:39:37;1000.14;;;19.59;78.39
48810;BME280;40070;47.322;18.784;2023-07-31T02:41:38;1000.26;;;19.51;78.43
48810;BME280;40070;47.322;18.784;2023-07-31T02:43:39;1000.24;;;19.74;77.81
48810;BME280;40070;47.322;18.784;2023-07-31T02:45:40;1000.24;;;19.80;77.46
48810;BME280;40070;47.322;18.784;2023-07-31T02:47:41;1000.20;;;19.71;77.38
48810;BME280;40070;47.322;18.784;2023-07-31T02:49:42;1000.21;;;19.46;77.67
48810;BME280;40070;47.322;18.784;2023-07-31T02:51:43;1000.19;;;19.34;77.66
48810;BME280;40070;47.322;18.784;2023-07-31T02:53:44;1000.13;;;19.26;77.29
48810;BME280;40070;47.322;18.784;2023-07-31T02:55:45;1000.15;;;19.15;77.56
48810;BME280;40070;47.322;18.784;2023-07-31T02:57:45;1000.18;;;19.07;77.77
48810;BME280;40070;47.322;18.784;2023-07-31T02:59:46;1000.22;;;19.08;77.67
48810;BME280;40070;47.322;18.784;2023-07-31T03:01:47;1000.22;;;19.12;77.39
48810;BME280;40070;47.322;18.784;2023-07-31T03:03:48;1000.23;;;19.01;77.82
48810;BME280;40070;47.322;18.784;2023-07-31T03:05:49;1000.17;;;19.05;77.32
48810;BME280;40070;47.322;18.784;2023-07-31T03:07:50;1000.14;;;19.06;77.35
48810;BME280;40070;47.322;18.784;2023-07-31T03:09:51;1000.19;;;19.15;77.04
48810;BME280;40070;47.322;18.784;2023-07-31T03:11:52;1000.24;;;19.20;76.76
48810;BME280;40070;47.322;18.784;2023-07-31T03:13:53;1000.26;;;19.19;76.71
48810;BME280;40070;47.322;18.784;2023-07-31T03:15:54;1000.33;;;19.19;76.67
48810;BME280;40070;47.322;18.784;2023-07-31T03:17:55;1000.38;;;19.12;76.88
48810;BME280;40070;47.322;18.784;2023-07-31T03:19:56;1000.37;;;19.19;76.56
48810;BME280;40070;47.322;18.784;2023-07-31T03:21:57;1000.43;;;19.34;76.30
48810;BME280;40070;47.322;18.784;2023-07-31T03:23:58;1000.46;;;19.43;75.20
48810;BME280;40070;47.322;18.784;2023-07-31T03:26:00;1000.49;;;19.48;75.25
48810;BME280;40070;47.322;18.784;2023-07-31T03:28:01;1000.60;;;19.61;75.00
48810;BME280;40070;47.322;18.784;2023-07-31T03:30:02;1000.60;;;19.47;75.08
48810;BME280;40070;47.322;18.784;2023-07-31T03:32:04;1000.58;;;19.45;75.54
48810;BME280;40070;47.322;18.784;2023-07-31T03:34:05;1000.58;;;19.66;74.71
48810;BME280;40070;47.322;18.784;2023-07-31T03:36:06;1000.58;;;19.75;74.60
48810;BME280;40070;47.322;18.784;2023-07-31T03:38:07;1000.56;;;19.71;74.09
48810;BME280;40070;47.322;18.784;2023-07-31T03:40:08;1000.54;;;19.69;74.36
48810;BME280;40070;47.322;18.784;2023-07-31T03:42:09;1000.62;;;19.58;73.84
48810;BME280;40070;47.322;18.784;2023-07-31T03:44:10;1000.61;;;19.73;74.01
48810;BME280;40070;47.322;18.784;2023-07-31T03:46:11;1000.58;;;19.84;73.87
48810;BME280;40070;47.322;18.784;2023-07-31T03:48:13;1000.59;;;19.95;73.20
48810;BME280;40070;47.322;18.784;2023-07-31T03:50:14;1000.57;;;19.87;73.21
48810;BME280;40070;47.322;18.784;2023-07-31T03:52:15;1000.63;;;19.88;73.32
48810;BME280;40070;47.322;18.784;2023-07-31T03:54:16;1000.63;;;19.99;73.09
48810;BME280;40070;47.322;18.784;2023-07-31T03:56:17;1000.62;;;19.85;73.69
48810;BME280;40070;47.322;18.784;2023-07-31T03:58:18;1000.68;;;19.77;73.06
48810;BME280;40070;47.322;18.784;2023-07-31T04:00:19;1000.61;;;19.89;73.35
48810;BME280;40070;47.322;18.784;2023-07-31T04:02:20;1000.61;;;19.95;73.19
48810;BME280;40070;47.322;18.784;2023-07-31T04:04:21;1000.65;;;19.75;72.45
48810;BME280;40070;47.322;18.784;2023-07-31T04:06:22;1000.61;;;19.73;72.65
48810;BME280;40070;47.322;18.784;2023-07-31T04:08:23;1000.56;;;19.75;72.65
48810;BME280;40070;47.322;18.784;2023-07-31T04:10:24;1000.54;;;19.74;72.92
48810;BME280;40070;47.322;18.784;2023-07-31T04:12:25;1000.49;;;19.69;72.21
48810;BME280;40070;47.322;18.784;2023-07-31T04:14:26;1000.50;;;19.76;71.86
48810;BME280;40070;47.322;18.784;2023-07-31T04:16:27;1000.58;;;19.54;72.05
48810;BME280;40070;47.322;18.784;2023-07-31T04:18:28;1000.62;;;19.54;71.98
48810;BME280;40070;47.322;18.784;2023-07-31T04:20:29;1000.62;;;19.67;71.50
48810;BME280;40070;47.322;18.784;2023-07-31T04:22:30;1000.70;;;19.67;71.67
48810;BME280;40070;47.322;18.784;2023-07-31T04:24:31;1000.68;;;19.74;70.79
48810;BME280;40070;47.322;18.784;2023-07-31T04:26:32;1000.65;;;19.92;71.47
48810;BME280;40070;47.322;18.784;2023-07-31T04:28:33;1000.63;;;20.10;71.46
48810;BME280;40070;47.322;18.784;2023-07-31T04:30:34;1000.61;;;20.00;70.46
48810;BME280;40070;47.322;18.784;2023-07-31T04:32:35;1000.58;;;20.07;70.94
48810;BME280;40070;47.322;18.784;2023-07-31T04:34:36;1000.63;;;19.98;71.11
48810;BME280;40070;47.322;18.784;2023-07-31T04:36:37;1000.59;;;19.99;69.77
48810;BME280;40070;47.322;18.784;2023-07-31T04:38:38;1000.62;;;19.89;69.48
48810;BME280;40070;47.322;18.784;2023-07-31T04:40:39;1000.66;;;19.93;69.70
48810;BME280;40070;47.322;18.784;2023-07-31T04:42:40;1000.71;;;19.93;69.11
48810;BME280;40070;47.322;18.784;2023-07-31T04:44:41;1000.68;;;19.88;68.57
48810;BME280;40070;47.322;18.784;2023-07-31T04:46:42;1000.73;;;19.90;68.53
48810;BME280;40070;47.322;18.784;2023-07-31T04:48:43;1000.79;;;19.91;67.98
48810;BME280;40070;47.322;18.784;2023-07-31T04:50:44;1000.81;;;19.95;67.93
48810;BME280;40070;47.322;18.784;2023-07-31T04:52:45;1000.86;;;19.81;68.07
48810;BME280;40070;47.322;18.784;2023-07-31T04:54:46;1000.86;;;20.00;67.49
48810;BME280;40070;47.322;18.784;2023-07-31T04:56:47;1000.81;;;20.22;67.28
48810;BME280;40070;47.322;18.784;2023-07-31T04:58:48;1000.82;;;20.29;66.87
48810;BME280;40070;47.322;18.784;2023-07-31T05:00:48;1000.80;;;20.33;66.41
48810;BME280;40070;47.322;18.784;2023-07-31T05:02:49;1000.83;;;20.35;66.17
48810;BME280;40070;47.322;18.784;2023-07-31T05:04:50;1000.83;;;20.20;66.58
48810;BME280;40070;47.322;18.784;2023-07-31T05:06:51;1000.85;;;20.15;65.18
48810;BME280;40070;47.322;18.784;2023-07-31T05:08:52;1000.88;;;20.24;65.50
48810;BME280;40070;47.322;18.784;2023-07-31T05:10:53;1000.87;;;20.14;65.08
48810;BME280;40070;47.322;18.784;2023-07-31T05:12:54;1000.86;;;20.21;65.44
48810;BME280;40070;47.322;18.784;2023-07-31T05:14:55;1000.84;;;20.11;63.73
48810;BME280;40070;47.322;18.784;2023-07-31T05:16:56;1000.92;;;20.39;63.02
48810;BME280;40070;47.322;18.784;2023-07-31T05:18:57;1000.93;;;20.23;64.34
48810;BME280;40070;47.322;18.784;2023-07-31T05:20:58;1000.84;;;20.37;61.80
48810;BME280;40070;47.322;18.784;2023-07-31T05:22:59;1000.82;;;20.45;61.88
48810;BME280;40070;47.322;18.784;2023-07-31T05:25:00;1000.88;;;20.43;61.68
48810;BME280;40070;47.322;18.784;2023-07-31T05:27:01;1000.88;;;20.34;61.92
48810;BME280;40070;47.322;18.784;2023-07-31T05:29:02;1000.73;;;20.46;61.43
48810;BME280;40070;47.322;18.784;2023-07-31T05:31:04;1000.80;;;20.33;61.58
48810;BME280;40070;47.322;18.784;2023-07-31T05:33:05;1000.80;;;20.42;61.59
48810;BME280;40070;47.322;18.784;2023-07-31T05:35:06;1000.92;;;20.21;61.92
48810;BME280;40070;47.322;18.784;2023-07-31T05:37:07;1000.89;;;20.34;61.66
48810;BME280;40070;47.322;18.784;2023-07-31T05:39:08;1000.88;;;20.57;61.17
48810;BME280;40070;47.322;18.784;2023-07-31T05:41:09;1000.88;;;20.62;60.37
48810;BME280;40070;47.322;18.784;2023-07-31T05:43:10;1000.89;;;20.69;59.67
48810;BME280;40070;47.322;18.784;2023-07-31T05:45:11;1000.93;;;20.80;59.85
48810;BME280;40070;47.322;18.784;2023-07-31T05:47:12;1000.91;;;20.75;60.13
48810;BME280;40070;47.322;18.784;2023-07-31T05:49:13;1000.90;;;20.76;59.76
48810;BME280;40070;47.322;18.784;2023-07-31T05:51:14;1000.90;;;20.84;59.92
48810;BME280;40070;47.322;18.784;2023-07-31T05:53:15;1000.92;;;20.98;59.67
48810;BME280;40070;47.322;18.784;2023-07-31T05:55:16;1000.95;;;21.20;59.21
48810;BME280;40070;47.322;18.784;2023-07-31T05:57:17;1000.96;;;21.45;58.48
48810;BME280;40070;47.322;18.784;2023-07-31T05:59:18;1000.94;;;21.51;58.53
48810;BME280;40070;47.322;18.784;2023-07-31T06:01:19;1000.93;;;21.71;57.88
48810;BME280;40070;47.322;18.784;2023-07-31T06:03:20;1000.96;;;21.52;55.96
48810;BME280;40070;47.322;18.784;2023-07-31T06:05:21;1000.96;;;21.47;55.69
48810;BME280;40070;47.322;18.784;2023-07-31T06:07:22;1000.99;;;21.32;56.43
48810;BME280;40070;47.322;18.784;2023-07-31T06:09:23;1000.97;;;21.39;55.23
48810;BME280;40070;47.322;18.784;2023-07-31T06:11:24;1000.94;;;21.37;55.31
48810;BME280;40070;47.322;18.784;2023-07-31T06:13:25;1001.01;;;21.43;55.34
48810;BME280;40070;47.322;18.784;2023-07-31T06:15:25;1001.00;;;21.68;55.38
48810;BME280;40070;47.322;18.784;2023-07-31T06:17:26;1001.06;;;21.76;55.12
48810;BME280;40070;47.322;18.784;2023-07-31T06:19:28;1001.05;;;21.72;54.79
48810;BME280;40070;47.322;18.784;2023-07-31T06:21:28;1001.05;;;21.72;55.25
48810;BME280;40070;47.322;18.784;2023-07-31T06:23:29;1001.07;;;21.67;56.01
48810;BME280;40070;47.322;18.784;2023-07-31T06:25:30;1001.20;;;21.82;55.35
48810;BME280;40070;47.322;18.784;2023-07-31T06:27:42;1001.13;;;21.49;56.81
48810;BME280;40070;47.322;18.784;2023-07-31T06:29:42;1001.19;;;21.83;55.81
48810;BME280;40070;47.322;18.784;2023-07-31T06:31:43;1001.12;;;22.01;55.34
48810;BME280;40070;47.322;18.784;2023-07-31T06:33:44;1001.14;;;21.81;54.82
48810;BME280;40070;47.322;18.784;2023-07-31T06:35:45;1001.13;;;21.80;54.60
48810;BME280;40070;47.322;18.784;2023-07-31T06:37:46;1001.11;;;22.01;54.36
48810;BME280;40070;47.322;18.784;2023-07-31T06:39:47;1001.16;;;22.00;54.96
48810;BME280;40070;47.322;18.784;2023-07-31T06:41:48;1001.11;;;22.25;54.77
48810;BME280;40070;47.322;18.784;2023-07-31T06:43:49;1001.14;;;22.33;54.05
48810;BME280;40070;47.322;18.784;2023-07-31T06:45:50;1001.08;;;22.37;53.71
48810;BME280;40070;47.322;18.784;2023-07-31T06:47:51;1001.08;;;22.17;53.10
48810;BME280;40070;47.322;18.784;2023-07-31T06:49:52;1001.16;;;21.99;53.72
48810;BME280;40070;47.322;18.784;2023-07-31T06:51:53;1001.13;;;22.16;54.11
48810;BME280;40070;47.322;18.784;2023-07-31T06:53:54;1001.15;;;22.14;53.74
48810;BME280;40070;47.322;18.784;2023-07-31T06:55:55;1001.12;;;21.95;53.71
48810;BME280;40070;47.322;18.784;2023-07-31T06:57:56;1001.12;;;22.22;53.94
48810;BME280;40070;47.322;18.784;2023-07-31T06:59:57;1001.13;;;22.40;53.52
48810;BME280;40070;47.322;18.784;2023-07-31T07:01:58;1001.18;;;22.57;52.92
48810;BME280;40070;47.322;18.784;2023-07-31T07:03:59;1001.11;;;22.89;52.52
48810;BME280;40070;47.322;18.784;2023-07-31T07:06:00;1001.07;;;22.79;52.53
48810;BME280;40070;47.322;18.784;2023-07-31T07:08:01;1001.06;;;22.87;51.56
48810;BME280;40070;47.322;18.784;2023-07-31T07:10:02;1001.07;;;22.86;52.40
48810;BME280;40070;47.322;18.784;2023-07-31T07:12:04;1001.02;;;22.99;52.16
48810;BME280;40070;47.322;18.784;2023-07-31T07:14:05;1001.10;;;23.09;51.05
48810;BME280;40070;47.322;18.784;2023-07-31T07:16:06;1001.10;;;23.27;50.24
48810;BME280;40070;47.322;18.784;2023-07-31T07:18:07;1001.12;;;22.97;50.54
48810;BME280;40070;47.322;18.784;2023-07-31T07:20:08;1001.19;;;23.06;50.39
48810;BME280;40070;47.322;18.784;2023-07-31T07:22:09;1001.18;;;23.01;50.17
48810;BME280;40070;47.322;18.784;2023-07-31T07:24:10;1001.22;;;22.93;49.70
48810;BME280;40070;47.322;18.784;2023-07-31T07:26:11;1001.23;;;23.07;49.60
48810;BME280;40070;47.322;18.784;2023-07-31T07:28:12;1001.35;;;23.29;49.78
48810;BME280;40070;47.322;18.784;2023-07-31T07:30:14;1001.30;;;22.90;49.34
48810;BME280;40070;47.322;18.784;2023-07-31T07:32:15;1001.24;;;23.13;49.07
48810;BME280;40070;47.322;18.784;2023-07-31T07:34:16;1001.26;;;22.95;48.87
48810;BME280;40070;47.322;18.784;2023-07-31T07:36:17;1001.20;;;22.79;48.56
48810;BME280;40070;47.322;18.784;2023-07-31T07:38:18;1001.26;;;22.53;49.09
48810;BME280;40070;47.322;18.784;2023-07-31T07:40:19;1001.29;;;22.57;50.04
48810;BME280;40070;47.322;18.784;2023-07-31T07:42:20;1001.24;;;22.78;49.94
48810;BME280;40070;47.322;18.784;2023-07-31T07:44:21;1001.33;;;23.01;48.99
48810;BME280;40070;47.322;18.784;2023-07-31T07:46:22;1001.36;;;23.27;49.41
48810;BME280;40070;47.322;18.784;2023-07-31T07:48:23;1001.35;;;23.24;47.42
48810;BME280;40070;47.322;18.784;2023-07-31T07:50:24;1001.40;;;23.09;48.29
48810;BME280;40070;47.322;18.784;2023-07-31T07:52:25;1001.35;;;23.36;48.76
48810;BME280;40070;47.322;18.784;2023-07-31T07:54:26;1001.36;;;23.40;48.23
48810;BME280;40070;47.322;18.784;2023-07-31T07:56:27;1001.36;;;23.40;47.70
48810;BME280;40070;47.322;18.784;2023-07-31T07:58:28;1001.33;;;23.31;48.10
48810;BME280;40070;47.322;18.784;2023-07-31T08:00:29;1001.30;;;23.39;48.42
48810;BME280;40070;47.322;18.784;2023-07-31T08:02:30;1001.24;;;23.53;48.70
48810;BME280;40070;47.322;18.784;2023-07-31T08:04:31;1001.22;;;23.93;48.43
48810;BME280;40070;47.322;18.784;2023-07-31T08:06:32;1001.20;;;23.90;47.17
48810;BME280;40070;47.322;18.784;2023-07-31T08:08:33;1001.21;;;23.88;46.51
48810;BME280;40070;47.322;18.784;2023-07-31T08:10:34;1001.17;;;23.93;47.62
48810;BME280;40070;47.322;18.784;2023-07-31T08:12:34;1001.15;;;24.36;46.59
48810;BME280;40070;47.322;18.784;2023-07-31T08:14:35;1001.10;;;24.49;46.17
48810;BME280;40070;47.322;18.784;2023-07-31T08:16:36;1001.14;;;24.83;46.11
48810;BME280;40070;47.322;18.784;2023-07-31T08:18:37;1001.18;;;24.68;44.17
48810;BME280;40070;47.322;18.784;2023-07-31T08:20:38;1001.23;;;24.72;44.20
48810;BME280;40070;47.322;18.784;2023-07-31T08:22:39;1001.18;;;24.48;43.72
48810;BME280;40070;47.322;18.784;2023-07-31T08:24:40;1001.20;;;24.50;43.07
48810;BME280;40070;47.322;18.784;2023-07-31T08:26:42;1001.05;;;24.44;43.07
48810;BME280;40070;47.322;18.784;2023-07-31T08:28:43;1001.13;;;24.53;43.00
48810;BME280;40070;47.322;18.784;2023-07-31T08:30:44;1001.09;;;24.49;42.45
48810;BME280;40070;47.322;18.784;2023-07-31T08:32:45;1001.05;;;24.30;41.76
48810;BME280;40070;47.322;18.784;2023-07-31T08:34:46;1001.10;;;24.47;42.26
48810;BME280;40070;47.322;18.784;2023-07-31T08:36:47;1001.04;;;24.42;42.30
48810;BME280;40070;47.322;18.784;2023-07-31T08:38:48;1001.08;;;24.57;42.79
48810;BME280;40070;47.322;18.784;2023-07-31T08:40:49;1001.00;;;24.75;42.53
48810;BME280;40070;47.322;18.784;2023-07-31T08:42:51;1001.02;;;24.95;42.59
48810;BME280;40070;47.322;18.784;2023-07-31T08:44:52;1000.98;;;25.19;41.92
48810;BME280;40070;47.322;18.784;2023-07-31T08:46:55;1000.96;;;25.12;41.84
48810;BME280;40070;47.322;18.784;2023-07-31T08:48:56;1000.90;;;25.51;41.34
48810;BME280;40070;47.322;18.784;2023-07-31T08:50:58;1001.01;;;25.61;41.33
48810;BME280;40070;47.322;18.784;2023-07-31T08:53:00;1001.04;;;25.54;39.79
48810;BME280;40070;47.322;18.784;2023-07-31T08:55:01;1001.01;;;25.44;40.16
48810;BME280;40070;47.322;18.784;2023-07-31T08:57:02;1000.94;;;25.37;38.62
48810;BME280;40070;47.322;18.784;2023-07-31T08:59:04;1000.97;;;25.19;39.81
48810;BME280;40070;47.322;18.784;2023-07-31T09:01:05;1000.91;;;25.30;39.05
48810;BME280;40070;47.322;18.784;2023-07-31T09:03:08;1000.91;;;25.49;39.51
48810;BME280;40070;47.322;18.784;2023-07-31T09:05:10;1000.85;;;25.57;38.46
48810;BME280;40070;47.322;18.784;2023-07-31T09:07:11;1000.91;;;25.34;38.47
48810;BME280;40070;47.322;18.784;2023-07-31T09:09:13;1000.84;;;25.04;39.22
48810;BME280;40070;47.322;18.784;2023-07-31T09:11:14;1000.84;;;25.28;38.72
48810;BME280;40070;47.322;18.784;2023-07-31T09:13:15;1000.85;;;25.25;38.77
48810;BME280;40070;47.322;18.784;2023-07-31T09:15:17;1000.74;;;25.54;38.41
48810;BME280;40070;47.322;18.784;2023-07-31T09:17:28;1000.78;;;25.57;38.19
48810;BME280;40070;47.322;18.784;2023-07-31T09:19:32;1000.77;;;26.04;38.91
48810;BME280;40070;47.322;18.784;2023-07-31T09:21:33;1000.81;;;25.96;37.38
48810;BME280;40070;47.322;18.784;2023-07-31T09:23:40;1000.75;;;25.79;38.27
48810;BME280;40070;47.322;18.784;2023-07-31T09:25:45;1000.76;;;25.86;38.45
48810;BME280;40070;47.322;18.784;2023-07-31T09:27:49;1000.71;;;26.00;38.14
48810;BME280;40070;47.322;18.784;2023-07-31T09:29:58;1000.77;;;26.09;36.71
48810;BME280;40070;47.322;18.784;2023-07-31T09:31:59;1000.75;;;26.22;36.73
48810;BME280;40070;47.322;18.784;2023-07-31T09:34:00;1000.70;;;26.02;35.79
48810;BME280;40070;47.322;18.784;2023-07-31T09:36:01;1000.75;;;26.09;35.95
48810;BME280;40070;47.322;18.784;2023-07-31T09:38:06;1000.60;;;26.13;36.43
48810;BME280;40070;47.322;18.784;2023-07-31T09:40:07;1000.62;;;26.36;35.75
48810;BME280;40070;47.322;18.784;2023-07-31T09:42:08;1000.64;;;26.07;36.19
48810;BME280;40070;47.322;18.784;2023-07-31T09:44:10;1000.59;;;26.07;37.33
48810;BME280;40070;47.322;18.784;2023-07-31T09:46:14;1000.62;;;26.22;37.14
48810;BME280;40070;47.322;18.784;2023-07-31T09:48:16;1000.58;;;26.54;35.36
48810;BME280;40070;47.322;18.784;2023-07-31T09:50:17;1000.57;;;26.23;34.61
48810;BME280;40070;47.322;18.784;2023-07-31T09:52:18;1000.59;;;26.06;34.96
48810;BME280;40070;47.322;18.784;2023-07-31T09:54:19;1000.63;;;25.92;35.49
48810;BME280;40070;47.322;18.784;2023-07-31T09:56:20;1000.73;;;25.90;35.89
48810;BME280;40070;47.322;18.784;2023-07-31T09:58:22;1000.62;;;26.13;35.74
48810;BME280;40070;47.322;18.784;2023-07-31T10:01:03;1000.65;;;25.91;36.50
48810;BME280;40070;47.322;18.784;2023-07-31T10:03:07;1000.63;;;26.33;36.10
48810;BME280;40070;47.322;18.784;2023-07-31T10:05:08;1000.64;;;26.32;36.17
48810;BME280;40070;47.322;18.784;2023-07-31T10:07:09;1000.65;;;26.38;36.41
48810;BME280;40070;47.322;18.784;2023-07-31T10:09:11;1000.66;;;26.53;36.13
48810;BME280;40070;47.322;18.784;2023-07-31T10:11:14;1000.66;;;26.52;36.41
48810;BME280;40070;47.322;18.784;2023-07-31T10:13:16;1000.65;;;26.45;35.65
48810;BME280;40070;47.322;18.784;2023-07-31T10:15:17;1000.65;;;26.91;35.24
48810;BME280;40070;47.322;18.784;2023-07-31T10:17:18;1000.57;;;26.72;35.31
48810;BME280;40070;47.322;18.784;2023-07-31T10:19:21;1000.59;;;26.72;35.58
48810;BME280;40070;47.322;18.784;2023-07-31T10:21:22;1000.52;;;26.87;35.13
48810;BME280;40070;47.322;18.784;2023-07-31T10:23:23;1000.66;;;27.22;35.20
48810;BME280;40070;47.322;18.784;2023-07-31T10:25:26;1000.62;;;27.51;34.60
48810;BME280;40070;47.322;18.784;2023-07-31T10:27:27;1000.64;;;27.59;33.88
48810;BME280;40070;47.322;18.784;2023-07-31T10:29:29;1000.59;;;27.60;33.28
48810;BME280;40070;47.322;18.784;2023-07-31T10:31:30;1000.63;;;27.31;33.69
48810;BME280;40070;47.322;18.784;2023-07-31T10:33:32;1000.56;;;27.32;32.94
48810;BME280;40070;47.322;18.784;2023-07-31T10:35:33;1000.55;;;27.15;32.95
48810;BME280;40070;47.322;18.784;2023-07-31T10:37:38;1000.53;;;27.22;32.98
48810;BME280;40070;47.322;18.784;2023-07-31T10:39:39;1000.58;;;27.57;33.31
48810;BME280;40070;47.322;18.784;2023-07-31T10:41:40;1000.57;;;27.85;32.31
48810;BME280;40070;47.322;18.784;2023-07-31T10:43:42;1000.52;;;27.68;31.43
48810;BME280;40070;47.322;18.784;2023-07-31T10:45:43;1000.49;;;27.74;31.98
48810;BME280;40070;47.322;18.784;2023-07-31T10:47:45;1000.53;;;27.70;31.60
48810;BME280;40070;47.322;18.784;2023-07-31T10:49:46;1000.43;;;27.81;31.92
48810;BME280;40070;47.322;18.784;2023-07-31T10:51:47;1000.42;;;28.01;31.89
48810;BME280;40070;47.322;18.784;2023-07-31T10:53:48;1000.46;;;27.61;32.21
48810;BME280;40070;47.322;18.784;2023-07-31T10:55:49;1000.56;;;27.66;32.82
48810;BME280;40070;47.322;18.784;2023-07-31T10:57:50;1000.52;;;27.42;32.84
48810;BME280;40070;47.322;18.784;2023-07-31T10:59:51;1000.56;;;27.50;32.54